Time;durP1;ratioP1;P1;durP2;ratioP2;P2;SDS_P1;SDS_P2;PMS_P1;PMS_P2;Temp;Humidity;BMP_temperature;BMP_pressure;BME280_temperature;BME280_humidity;BME280_pressure;Samples;Min_cycle;Max_cycle;Signal;HPM_P1;HPM_P2
2021/05/13 00:00:46;;;;;;;6.00;3.70;;;12.20;77.30;;;;;;5024727;28;20189;-88
2021/05/13 00:03:12;;;;;;;4.80;4.40;;;12.20;77.00;;;;;;5024823;28;20178;-88
2021/05/13 00:05:37;;;;;;;5.90;4.47;;;12.20;77.30;;;;;;5023897;28;20198;-89
2021/05/13 00:08:04;;;;;;;5.13;4.33;;;12.30;76.90;;;;;;5024208;28;20242;-88
2021/05/13 00:10:30;;;;;;;8.60;6.03;;;12.40;76.50;;;;;;5025654;28;20704;-87
2021/05/13 00:13:00;;;;;;;6.47;5.17;;;12.20;76.50;;;;;;5021616;28;20184;-87
2021/05/13 00:15:32;;;;;;;5.60;5.10;;;12.10;77.30;;;;;;5019047;28;20591;-88
2021/05/13 00:17:58;;;;;;;5.10;4.60;;;12.20;76.70;;;;;;5017225;28;20624;-88
2021/05/13 00:20:26;;;;;;;4.97;4.40;;;12.10;77.50;;;;;;5017860;28;20219;-87
2021/05/13 00:22:52;;;;;;;5.70;4.93;;;12.10;77.10;;;;;;5017592;28;20216;-87
2021/05/13 00:25:18;;;;;;;5.80;5.30;;;12.10;76.90;;;;;;5017257;28;20196;-87
2021/05/13 00:27:44;;;;;;;5.60;4.80;;;12.10;76.90;;;;;;5016387;28;20231;-88
2021/05/13 00:30:10;;;;;;;10.77;5.03;;;12.10;77.00;;;;;;5017439;28;20205;-87
2021/05/13 00:32:37;;;;;;;8.47;5.37;;;12.10;76.40;;;;;;5017233;28;20185;-88
2021/05/13 00:35:08;;;;;;;7.67;6.43;;;12.10;76.90;;;;;;5014189;28;20255;-88
2021/05/13 00:37:34;;;;;;;7.63;6.37;;;12.10;76.90;;;;;;5015322;28;20540;-88
2021/05/13 00:40:00;;;;;;;12.20;10.30;;;12.00;76.90;;;;;;5014991;28;20231;-88
2021/05/13 00:42:26;;;;;;;11.20;9.50;;;11.90;77.20;;;;;;5015788;28;20256;-90
2021/05/13 00:44:54;;;;;;;9.53;8.73;;;12.00;77.10;;;;;;5016030;28;20237;-89
2021/05/13 00:47:20;;;;;;;10.67;7.83;;;12.00;76.90;;;;;;5015738;28;20209;-88
2021/05/13 00:49:45;;;;;;;8.33;7.63;;;11.90;76.80;;;;;;5016014;28;20203;-90
2021/05/13 00:52:13;;;;;;;10.00;8.13;;;12.00;76.80;;;;;;5015118;28;20199;-88
2021/05/13 00:54:39;;;;;;;7.93;7.13;;;12.00;76.70;;;;;;5015852;28;20181;-89
2021/05/13 00:57:10;;;;;;;7.60;6.20;;;12.00;77.10;;;;;;5015472;28;20225;-89
2021/05/13 00:59:42;;;;;;;7.83;7.07;;;12.00;77.40;;;;;;5014910;28;20863;-90
2021/05/13 01:02:08;;;;;;;8.00;7.30;;;11.90;76.70;;;;;;5015017;28;20822;-89
2021/05/13 01:04:34;;;;;;;6.70;5.87;;;11.70;77.00;;;;;;5014845;28;20207;-89
2021/05/13 01:07:00;;;;;;;6.23;5.30;;;11.70;78.10;;;;;;5013985;28;20213;-89
2021/05/13 01:09:28;;;;;;;6.70;6.13;;;11.80;77.60;;;;;;5014242;28;20217;-89
2021/05/13 01:11:57;;;;;;;6.53;5.93;;;11.80;77.30;;;;;;5013761;28;20686;-89
2021/05/13 01:16:52;;;;;;;6.20;5.60;;;11.80;77.50;;;;;;5013684;28;20194;-89
2021/05/13 01:19:18;;;;;;;7.10;6.40;;;11.70;77.20;;;;;;5013385;28;20702;-90
2021/05/13 01:21:44;;;;;;;7.07;6.47;;;11.80;77.50;;;;;;5015316;28;20196;-90
2021/05/13 01:24:12;;;;;;;10.50;8.03;;;11.80;78.10;;;;;;5015677;28;20192;-89
2021/05/13 01:26:38;;;;;;;6.87;6.17;;;11.80;77.50;;;;;;5014855;28;20292;-90
2021/05/13 01:29:04;;;;;;;8.80;6.47;;;11.80;77.20;;;;;;5014947;28;20330;-89
2021/05/13 01:31:30;;;;;;;6.33;5.77;;;11.80;76.80;;;;;;4997738;28;20203;-89
2021/05/13 01:33:55;;;;;;;9.87;6.47;;;11.80;76.50;;;;;;5015240;28;20185;-90
2021/05/13 01:36:21;;;;;;;6.77;5.83;;;11.80;76.70;;;;;;5013610;28;20242;-89
2021/05/13 01:38:47;;;;;;;6.23;5.63;;;11.80;76.50;;;;;;5014716;28;20237;-89
2021/05/13 01:41:12;;;;;;;6.43;5.70;;;11.80;76.30;;;;;;5015011;28;20197;-90
2021/05/13 01:43:38;;;;;;;6.23;5.73;;;11.60;76.30;;;;;;5015177;28;20189;-90
2021/05/13 01:46:04;;;;;;;6.40;5.30;;;11.70;76.50;;;;;;5013584;28;20231;-89
2021/05/13 01:48:30;;;;;;;6.27;5.77;;;11.70;77.00;;;;;;5015291;28;20224;-89
2021/05/13 01:50:57;;;;;;;11.17;6.23;;;11.60;76.90;;;;;;5015574;28;20597;-89
2021/05/13 01:53:23;;;;;;;7.83;5.43;;;11.60;77.00;;;;;;5015396;28;20188;-89
2021/05/13 01:55:49;;;;;;;6.57;5.77;;;11.50;77.00;;;;;;5014858;28;20211;-90
2021/05/13 01:58:15;;;;;;;5.83;5.27;;;11.50;76.90;;;;;;5014416;28;20196;-90
2021/05/13 02:00:44;;;;;;;5.13;4.60;;;11.50;77.20;;;;;;5013768;28;20185;-89
2021/05/13 02:03:10;;;;;;;6.43;4.40;;;11.60;77.40;;;;;;5014784;28;20177;-89
2021/05/13 02:05:36;;;;;;;5.73;4.90;;;11.50;77.50;;;;;;5013324;28;20282;-90
2021/05/13 02:08:02;;;;;;;5.07;4.67;;;11.50;76.90;;;;;;5014553;28;20654;-89
2021/05/13 02:10:28;;;;;;;4.80;4.30;;;11.20;76.90;;;;;;5014457;28;20199;-89
2021/05/13 02:12:56;;;;;;;6.50;4.43;;;11.20;77.40;;;;;;5014255;28;20184;-89
2021/05/13 02:15:22;;;;;;;5.60;4.20;;;11.20;77.50;;;;;;5014789;28;20188;-90
2021/05/13 02:17:48;;;;;;;4.40;4.00;;;11.10;77.30;;;;;;5014629;28;20190;-90
2021/05/13 02:20:17;;;;;;;5.13;4.30;;;11.10;77.90;;;;;;5014294;28;20207;-89
2021/05/13 02:22:43;;;;;;;4.40;4.07;;;11.00;77.60;;;;;;5013537;28;20277;-89
2021/05/13 02:25:10;;;;;;;4.97;4.47;;;10.90;78.70;;;;;;5014243;28;20772;-90
2021/05/13 02:27:37;;;;;;;4.33;3.87;;;10.80;79.50;;;;;;5013961;28;20207;-90
2021/05/13 02:30:04;;;;;;;4.03;3.73;;;10.70;79.90;;;;;;5013259;28;20246;-89
2021/05/13 02:32:30;;;;;;;4.17;3.77;;;10.60;80.20;;;;;;5014213;28;20669;-90
2021/05/13 02:34:56;;;;;;;3.43;3.17;;;10.50;81.00;;;;;;5014677;28;20210;-89
2021/05/13 02:37:21;;;;;;;4.97;3.50;;;10.40;81.50;;;;;;5015519;28;20213;-89
2021/05/13 02:39:48;;;;;;;3.67;3.37;;;10.50;82.10;;;;;;5016776;28;20229;-90
2021/05/13 02:42:13;;;;;;;4.47;3.63;;;10.50;80.50;;;;;;5022368;28;20232;-89
2021/05/13 02:44:39;;;;;;;11.53;4.20;;;10.50;80.30;;;;;;5027463;28;20261;-90
2021/05/13 02:47:05;;;;;;;3.30;3.00;;;10.60;79.60;;;;;;5020720;28;20250;-89
2021/05/13 02:49:30;;;;;;;3.53;3.23;;;10.60;78.90;;;;;;5013755;28;20213;-89
2021/05/13 02:51:56;;;;;;;4.30;3.20;;;10.50;78.80;;;;;;5013795;28;20182;-89
2021/05/13 02:54:22;;;;;;;3.83;3.43;;;10.40;78.80;;;;;;5014088;28;20902;-89
2021/05/13 02:56:48;;;;;;;3.70;3.40;;;10.30;79.60;;;;;;5013804;28;20182;-90
2021/05/13 02:59:15;;;;;;;5.10;3.40;;;10.40;79.70;;;;;;5014888;28;20266;-90
2021/05/13 03:01:41;;;;;;;3.23;2.90;;;10.40;79.80;;;;;;5015655;28;20245;-89
2021/05/13 03:04:07;;;;;;;3.53;3.13;;;10.50;79.20;;;;;;5014670;28;20272;-89
2021/05/13 03:06:33;;;;;;;3.80;3.40;;;10.50;78.50;;;;;;5015255;28;20791;-89
2021/05/13 03:08:59;;;;;;;3.97;3.43;;;10.50;78.50;;;;;;5015945;28;20248;-89
2021/05/13 03:11:27;;;;;;;3.30;3.00;;;10.40;78.60;;;;;;5015783;28;20246;-89
2021/05/13 03:13:55;;;;;;;3.60;3.07;;;10.50;78.70;;;;;;5015525;28;20181;-89
2021/05/13 03:16:21;;;;;;;3.30;3.00;;;10.50;78.00;;;;;;5015205;28;20179;-89
2021/05/13 03:18:51;;;;;;;5.73;3.03;;;10.50;78.50;;;;;;5015630;28;20409;-89
2021/05/13 03:24:23;;;;;;;3.77;3.23;;;10.50;77.80;;;;;;5035972;28;20242;-88
2021/05/13 03:29:18;;;;;;;3.37;3.00;;;10.60;78.00;;;;;;5015519;28;20261;-89
2021/05/13 03:31:44;;;;;;;3.13;2.93;;;10.60;77.70;;;;;;5016089;28;20262;-89
2021/05/13 03:34:10;;;;;;;3.70;3.10;;;10.60;76.50;;;;;;5015183;28;20183;-90
2021/05/13 03:36:36;;;;;;;3.37;2.83;;;10.40;76.70;;;;;;5014079;28;20209;-89
2021/05/13 03:39:07;;;;;;;3.90;3.60;;;10.50;77.10;;;;;;5015530;28;20205;-89
2021/05/13 03:41:33;;;;;;;3.97;3.33;;;10.50;77.00;;;;;;5014333;28;20183;-89
2021/05/13 03:43:59;;;;;;;5.17;3.27;;;10.50;76.30;;;;;;5013896;28;20236;-89
2021/05/13 03:46:25;;;;;;;3.63;2.80;;;10.40;76.60;;;;;;5014781;28;20179;-89
2021/05/13 03:48:51;;;;;;;4.57;2.87;;;10.50;76.70;;;;;;5015410;28;20190;-90
2021/05/13 03:51:17;;;;;;;3.60;3.30;;;10.40;76.50;;;;;;5013294;28;20178;-89
2021/05/13 03:53:43;;;;;;;4.17;2.97;;;10.40;77.30;;;;;;5019123;28;20171;-88
2021/05/13 03:56:11;;;;;;;3.27;3.00;;;10.40;77.30;;;;;;5018721;28;20178;-88
2021/05/13 03:58:41;;;;;;;4.67;2.93;;;10.40;76.50;;;;;;5018771;28;20283;-90
2021/05/13 04:03:33;;;;;;;3.53;3.00;;;10.40;77.10;;;;;;5017520;28;20213;-88
2021/05/13 04:05:59;;;;;;;4.00;2.87;;;10.40;77.10;;;;;;4998661;28;20237;-89
2021/05/13 04:08:25;;;;;;;4.03;3.43;;;10.40;76.90;;;;;;4998687;28;20202;-89
2021/05/13 04:10:51;;;;;;;3.37;2.83;;;10.30;76.90;;;;;;4998056;28;20183;-88
2021/05/13 04:13:17;;;;;;;3.77;3.40;;;10.40;77.80;;;;;;4999046;28;20184;-89
2021/05/13 04:15:46;;;;;;;3.30;2.93;;;10.30;77.90;;;;;;4999162;28;20176;-90
2021/05/13 04:18:12;;;;;;;3.50;3.20;;;10.30;77.90;;;;;;4997932;28;20184;-88
2021/05/13 04:20:40;;;;;;;4.43;3.30;;;10.30;78.80;;;;;;4999005;28;20189;-88
2021/05/13 04:23:07;;;;;;;3.83;3.03;;;10.40;78.60;;;;;;4998663;28;20178;-89
2021/05/13 04:25:32;;;;;;;4.50;3.23;;;10.20;76.80;;;;;;4998946;28;20553;-88
2021/05/13 04:27:58;;;;;;;3.83;3.53;;;10.10;78.20;;;;;;4997092;28;20206;-88
2021/05/13 04:30:24;;;;;;;4.50;3.43;;;10.10;78.80;;;;;;4998009;28;20356;-88
2021/05/13 04:32:50;;;;;;;6.67;3.43;;;10.20;79.20;;;;;;4998152;28;20585;-89
2021/05/13 04:35:17;;;;;;;5.83;3.63;;;10.20;78.80;;;;;;4999091;28;20180;-89
2021/05/13 04:37:42;;;;;;;3.60;3.10;;;10.10;78.80;;;;;;4997537;28;20645;-88
2021/05/13 04:40:08;;;;;;;3.10;2.90;;;10.20;78.10;;;;;;4998188;28;20222;-88
2021/05/13 04:42:34;;;;;;;162.00;148.53;;;10.20;78.00;;;;;;4998046;28;20654;-88
2021/05/13 04:45:00;;;;;;;12.63;11.53;;;9.80;78.40;;;;;;4998630;28;20201;-89
2021/05/13 04:47:33;;;;;;;9.83;8.83;;;9.90;80.30;;;;;;4998750;28;20202;-89
2021/05/13 04:49:59;;;;;;;8.37;6.63;;;10.00;80.10;;;;;;4999054;28;20250;-89
2021/05/13 04:52:25;;;;;;;8.07;7.43;;;10.10;79.80;;;;;;4997992;28;20182;-88
2021/05/13 04:54:53;;;;;;;8.50;7.07;;;10.20;79.40;;;;;;4997970;28;20175;-88
2021/05/13 04:57:19;;;;;;;4.73;4.27;;;10.20;79.20;;;;;;4998006;28;20183;-88
2021/05/13 04:59:46;;;;;;;5.27;4.87;;;10.20;79.20;;;;;;4998442;28;20281;-89
2021/05/13 05:02:11;;;;;;;7.27;6.60;;;10.30;79.50;;;;;;5016713;28;20194;-88
2021/05/13 05:04:37;;;;;;;5.30;4.87;;;10.30;79.50;;;;;;5019218;28;20272;-88
2021/05/13 05:07:03;;;;;;;4.07;3.73;;;10.40;80.80;;;;;;5019573;28;20297;-88
2021/05/13 05:09:28;;;;;;;4.73;4.07;;;10.40;80.20;;;;;;5018709;28;20202;-90
2021/05/13 05:11:54;;;;;;;6.00;4.47;;;10.50;80.10;;;;;;5020151;28;20197;-88
2021/05/13 05:14:20;;;;;;;4.70;4.30;;;10.50;80.00;;;;;;5020023;28;20232;-89
2021/05/13 05:16:45;;;;;;;6.83;4.10;;;10.50;80.10;;;;;;5018984;28;20274;-88
2021/05/13 05:19:11;;;;;;;4.73;4.33;;;10.50;80.30;;;;;;5019967;28;20261;-88
2021/05/13 05:21:37;;;;;;;7.50;4.20;;;10.50;80.90;;;;;;5019797;28;20182;-89
2021/05/13 05:24:03;;;;;;;4.50;3.80;;;10.60;80.70;;;;;;5020058;28;20596;-89
2021/05/13 05:26:29;;;;;;;6.03;3.40;;;10.70;80.90;;;;;;5019135;28;20192;-89
2021/05/13 05:28:54;;;;;;;3.60;3.30;;;10.80;80.80;;;;;;5020247;28;20204;-88
2021/05/13 05:31:20;;;;;;;5.00;3.60;;;10.80;80.50;;;;;;5021600;28;20634;-88
2021/05/13 05:33:45;;;;;;;3.53;3.10;;;10.90;80.10;;;;;;5033248;28;20205;-88
2021/05/13 05:36:11;;;;;;;4.70;2.97;;;10.90;80.30;;;;;;5030734;28;20195;-88
2021/05/13 05:38:37;;;;;;;3.57;3.27;;;10.80;80.40;;;;;;5019695;28;20200;-89
2021/05/13 05:41:03;;;;;;;3.63;2.80;;;10.90;80.60;;;;;;5019442;28;20203;-88
2021/05/13 05:43:28;;;;;;;4.83;4.43;;;11.00;80.00;;;;;;5020076;28;20198;-89
2021/05/13 05:45:54;;;;;;;5.40;5.00;;;11.00;79.80;;;;;;5019330;28;20196;-89
2021/05/13 05:48:20;;;;;;;3.97;3.67;;;11.00;80.00;;;;;;5018404;28;20246;-89
2021/05/13 05:50:46;;;;;;;4.23;3.50;;;11.10;80.10;;;;;;5019994;28;20223;-91
2021/05/13 05:53:12;;;;;;;3.70;3.20;;;11.10;80.00;;;;;;5020420;28;20189;-92
2021/05/13 05:55:41;;;;;;;3.67;3.17;;;11.20;79.90;;;;;;5020336;28;20192;-91
2021/05/13 05:58:07;;;;;;;2.50;2.30;;;11.20;79.80;;;;;;5018280;28;20183;-92
2021/05/13 06:00:33;;;;;;;3.20;2.77;;;11.10;79.40;;;;;;5019781;28;20196;-91
2021/05/13 06:02:59;;;;;;;3.20;2.60;;;11.10;79.50;;;;;;5019067;28;20192;-91
2021/05/13 06:05:26;;;;;;;2.53;2.33;;;11.10;79.90;;;;;;5032476;28;20199;-91
2021/05/13 06:07:52;;;;;;;3.00;2.70;;;11.10;79.40;;;;;;5023160;28;20212;-90
2021/05/13 06:10:18;;;;;;;2.80;2.47;;;11.10;78.70;;;;;;5020584;28;20208;-88
2021/05/13 06:12:44;;;;;;;2.50;2.30;;;11.10;79.20;;;;;;5002601;28;20200;-88
2021/05/13 06:15:12;;;;;;;2.97;2.77;;;11.10;79.50;;;;;;5018588;28;20275;-88
2021/05/13 06:17:38;;;;;;;3.93;2.80;;;11.20;79.60;;;;;;5019667;28;20244;-89
2021/05/13 06:20:06;;;;;;;3.20;2.47;;;11.40;79.70;;;;;;5021066;28;20207;-89
2021/05/13 06:22:33;;;;;;;3.13;2.73;;;11.40;79.90;;;;;;5021086;28;20199;-88
2021/05/13 06:24:59;;;;;;;3.33;3.03;;;11.40;80.60;;;;;;5023275;28;20189;-89
2021/05/13 06:27:28;;;;;;;4.47;3.23;;;11.30;80.50;;;;;;5020227;28;20222;-89
2021/05/13 06:29:54;;;;;;;4.90;2.93;;;11.20;81.50;;;;;;5019405;28;20203;-89
2021/05/13 06:32:19;;;;;;;3.87;3.40;;;11.10;84.70;;;;;;4986207;28;20210;-89
2021/05/13 06:34:45;;;;;;;3.60;3.27;;;11.30;84.30;;;;;;5018847;28;20234;-88
2021/05/13 06:37:11;;;;;;;5.37;3.27;;;11.50;83.70;;;;;;5018578;28;20191;-88
2021/05/13 06:39:37;;;;;;;2.80;2.53;;;11.60;82.60;;;;;;5001330;28;20373;-89
2021/05/13 06:42:07;;;;;;;2.97;2.67;;;11.80;80.80;;;;;;5017723;28;20211;-89
2021/05/13 06:44:32;;;;;;;5.20;3.57;;;11.80;79.30;;;;;;5017090;28;20575;-88
2021/05/13 06:46:58;;;;;;;3.97;3.37;;;11.90;79.50;;;;;;5015836;28;20208;-88
2021/05/13 06:49:24;;;;;;;3.47;3.13;;;12.00;79.60;;;;;;5015023;28;20258;-89
2021/05/13 06:51:50;;;;;;;3.50;3.20;;;12.00;78.90;;;;;;5017607;28;20192;-89
2021/05/13 06:54:15;;;;;;;8.03;3.40;;;12.10;78.40;;;;;;5017166;28;20517;-88
2021/05/13 06:59:45;;;;;;;2.77;2.40;;;12.30;77.60;;;;;;5031549;22;20241;-88
2021/05/13 07:02:12;;;;;;;3.63;2.73;;;12.30;77.60;;;;;;4996023;28;20185;-89
2021/05/13 07:04:38;;;;;;;5.30;2.90;;;12.30;78.80;;;;;;5010430;28;20272;-88
2021/05/13 07:07:04;;;;;;;3.20;2.80;;;12.50;78.10;;;;;;5016320;28;20244;-88
2021/05/13 07:09:30;;;;;;;3.00;2.70;;;12.60;78.40;;;;;;5014806;28;20205;-88
2021/05/13 07:11:56;;;;;;;3.70;2.50;;;12.70;78.40;;;;;;5026936;28;20188;-91
2021/05/13 07:14:22;;;;;;;5.40;2.80;;;12.70;77.80;;;;;;5036046;28;20208;-90
2021/05/13 07:16:48;;;;;;;4.50;2.40;;;12.80;77.60;;;;;;5016000;28;20323;-90
2021/05/13 07:19:14;;;;;;;5.27;2.57;;;12.90;78.40;;;;;;5014056;28;20218;-90
2021/05/13 07:21:40;;;;;;;4.07;2.53;;;13.10;76.50;;;;;;5007366;28;20196;-89
2021/05/13 07:24:06;;;;;;;3.40;3.13;;;13.10;74.70;;;;;;5016933;28;20605;-91
2021/05/13 07:26:31;;;;;;;4.33;3.27;;;13.00;77.50;;;;;;5022791;28;20254;-90
2021/05/13 07:28:57;;;;;;;3.47;3.17;;;13.10;77.20;;;;;;5020747;28;20205;-90
2021/05/13 07:31:23;;;;;;;2.43;2.30;;;13.20;76.50;;;;;;5034621;28;20178;-90
2021/05/13 07:33:49;;;;;;;5.47;2.60;;;13.50;75.00;;;;;;5007351;28;20179;-90
2021/05/13 07:36:14;;;;;;;7.63;7.07;;;13.50;74.50;;;;;;5005105;28;20174;-89
2021/05/13 07:38:40;;;;;;;4.80;2.50;;;13.60;74.50;;;;;;5021940;28;20543;-86
2021/05/13 07:41:07;;;;;;;2.43;2.23;;;13.80;74.40;;;;;;5021462;28;20228;-86
2021/05/13 07:43:34;;;;;;;2.80;2.47;;;14.00;73.10;;;;;;5035233;28;20207;-88
2021/05/13 07:46:01;;;;;;;2.83;2.43;;;14.10;71.10;;;;;;5037449;28;20178;-89
2021/05/13 07:48:31;;;;;;;2.97;2.67;;;13.80;73.90;;;;;;5037036;28;20498;-90
2021/05/13 07:50:57;;;;;;;4.73;2.37;;;14.10;71.30;;;;;;5038700;28;20222;-89
2021/05/13 07:53:25;;;;;;;4.97;2.30;;;14.30;71.00;;;;;;5041247;28;20187;-91
2021/05/13 07:55:52;;;;;;;2.87;2.30;;;14.30;70.90;;;;;;5042711;28;20186;-89
2021/05/13 07:58:17;;;;;;;2.70;2.50;;;14.20;71.50;;;;;;5042042;28;20721;-90
2021/05/13 08:00:43;;;;;;;5.63;5.00;;;14.30;72.20;;;;;;5041536;28;20213;-91
2021/05/13 08:03:09;;;;;;;5.10;2.70;;;14.40;70.90;;;;;;5032968;28;20236;-91
2021/05/13 08:05:35;;;;;;;4.90;2.87;;;14.30;71.90;;;;;;5020339;28;20210;-90
2021/05/13 08:08:01;;;;;;;3.43;2.97;;;14.50;70.50;;;;;;5020477;28;20221;-90
2021/05/13 08:10:26;;;;;;;2.83;2.60;;;14.70;71.70;;;;;;5021167;28;20257;-90
2021/05/13 08:12:52;;;;;;;3.97;2.40;;;14.70;72.20;;;;;;5023548;28;20212;-90
2021/05/13 08:15:18;;;;;;;5.17;4.77;;;14.80;69.10;;;;;;5035346;28;20287;-90
2021/05/13 08:17:44;;;;;;;10.33;9.60;;;14.90;70.60;;;;;;5016293;28;20197;-91
2021/05/13 08:20:13;;;;;;;2.83;2.53;;;15.10;69.70;;;;;;5015546;28;20230;-91
2021/05/13 08:22:39;;;;;;;5.07;2.60;;;15.10;69.30;;;;;;5030409;28;20717;-92
2021/05/13 08:25:06;;;;;;;3.07;2.60;;;15.40;69.60;;;;;;5015177;28;20256;-91
2021/05/13 08:27:32;;;;;;;3.20;2.90;;;15.40;66.90;;;;;;5025444;28;20209;-91
2021/05/13 08:30:00;;;;;;;3.33;2.50;;;15.60;66.30;;;;;;5017138;28;20284;-90
2021/05/13 08:32:26;;;;;;;3.40;2.43;;;15.70;66.60;;;;;;5017413;28;20185;-88
2021/05/13 08:34:53;;;;;;;3.03;2.70;;;15.70;66.70;;;;;;5018015;28;20194;-89
2021/05/13 08:37:18;;;;;;;5.43;2.90;;;15.90;66.90;;;;;;5015930;28;20279;-89
2021/05/13 08:39:44;;;;;;;2.87;2.63;;;15.90;68.80;;;;;;5031092;28;20660;-89
2021/05/13 08:42:12;;;;;;;3.90;3.50;;;16.00;66.20;;;;;;5016611;28;20223;-90
2021/05/13 08:44:40;;;;;;;4.60;3.30;;;16.10;67.90;;;;;;5018278;28;20254;-91
2021/05/13 08:47:08;;;;;;;3.67;3.30;;;15.90;65.60;;;;;;5016548;28;20213;-89
2021/05/13 08:49:35;;;;;;;3.93;3.63;;;15.90;67.80;;;;;;5035360;28;20204;-91
2021/05/13 08:52:00;;;;;;;4.57;3.90;;;16.10;68.10;;;;;;5019471;28;20191;-89
2021/05/13 08:54:28;;;;;;;5.50;4.10;;;16.30;66.80;;;;;;5036784;28;20189;-90
2021/05/13 08:56:54;;;;;;;4.80;3.53;;;16.20;67.80;;;;;;5017152;28;20196;-89
2021/05/13 08:59:19;;;;;;;8.50;3.70;;;16.20;68.90;;;;;;5017929;28;20272;-89
2021/05/13 09:01:59;;;;;;;5.30;4.67;;;16.30;66.50;;;;;;5019668;28;20194;-89
2021/05/13 09:04:42;;;;;;;7.87;4.43;;;16.40;68.00;;;;;;5020821;28;20188;-88
2021/05/13 09:07:24;;;;;;;4.77;4.17;;;16.50;64.80;;;;;;5039338;28;20205;-89
2021/05/13 09:10:00;;;;;;;5.13;4.47;;;16.70;66.20;;;;;;5038553;28;20212;-90
2021/05/13 09:12:31;;;;;;;5.57;3.40;;;16.70;66.00;;;;;;5039768;28;20176;-90
2021/05/13 09:15:04;;;;;;;5.70;5.17;;;16.80;67.90;;;;;;5038542;28;20209;-90
2021/05/13 09:17:30;;;;;;;7.20;5.87;;;17.10;66.60;;;;;;5022142;28;20780;-89
2021/05/13 09:19:56;;;;;;;23.87;21.67;;;17.20;64.00;;;;;;5020524;28;20215;-89
2021/05/13 09:22:26;;;;;;;6.00;5.37;;;17.20;63.80;;;;;;5045281;28;20263;-89
2021/05/13 09:25:02;;;;;;;5.07;4.00;;;17.10;64.70;;;;;;5044870;28;20186;-88
2021/05/13 09:27:28;;;;;;;5.07;4.57;;;17.20;65.50;;;;;;5033302;28;20272;-89
2021/05/13 09:30:14;;;;;;;9.00;8.20;;;17.10;66.10;;;;;;5019951;28;20210;-89
2021/05/13 09:32:42;;;;;;;3.67;3.33;;;17.10;63.50;;;;;;5021337;28;20181;-90
2021/05/13 09:35:14;;;;;;;6.73;3.40;;;17.30;65.00;;;;;;5007616;28;20179;-90
2021/05/13 09:38:00;;;;;;;4.80;3.30;;;17.30;61.90;;;;;;5000355;28;20262;-90
2021/05/13 09:40:49;;;;;;;5.57;4.93;;;17.30;61.00;;;;;;5012077;28;20274;-92
2021/05/13 09:43:20;;;;;;;7.33;3.87;;;17.90;61.20;;;;;;5015982;28;20278;-92
2021/05/13 09:45:52;;;;;;;4.97;4.50;;;18.00;61.70;;;;;;5016472;28;20220;-90
2021/05/13 09:48:39;;;;;;;6.77;3.97;;;17.80;60.50;;;;;;5016665;28;20204;-90
2021/05/13 09:51:17;;;;;;;7.17;5.20;;;17.60;59.80;;;;;;5018803;28;20203;-92
2021/05/13 09:53:43;;;;;;;5.83;4.27;;;17.80;61.20;;;;;;5017996;28;20192;-90
2021/05/13 09:56:29;;;;;;;6.37;4.00;;;18.10;59.60;;;;;;5035807;28;20173;-91
2021/05/13 09:58:56;;;;;;;5.17;4.27;;;18.10;60.30;;;;;;5020002;28;20284;-91
2021/05/13 10:01:21;;;;;;;4.87;4.10;;;18.30;59.50;;;;;;5020377;28;20186;-93
2021/05/13 10:03:48;;;;;;;4.57;3.43;;;18.60;60.00;;;;;;5021530;28;20252;-91
2021/05/13 10:06:13;;;;;;;4.93;3.70;;;18.50;60.10;;;;;;5018491;28;20184;-92
2021/05/13 10:08:42;;;;;;;5.13;4.00;;;18.20;59.80;;;;;;5018932;28;20216;-92
2021/05/13 10:11:08;;;;;;;4.30;3.67;;;18.10;59.70;;;;;;5020771;28;20801;-93
2021/05/13 10:13:35;;;;;;;4.00;3.60;;;18.00;59.90;;;;;;5019106;28;20174;-93
2021/05/13 10:16:02;;;;;;;6.87;3.73;;;17.70;60.80;;;;;;5020197;28;20272;-91
2021/05/13 10:18:43;;;;;;;4.53;3.80;;;17.70;61.60;;;;;;5017543;28;20661;-90
2021/05/13 10:21:22;;;;;;;3.73;2.70;;;17.70;60.90;;;;;;5011488;28;20186;-90
2021/05/13 10:23:54;;;;;;;7.43;3.07;;;17.50;60.10;;;;;;5002055;28;20191;-90
2021/05/13 10:26:41;;;;;;;6.27;3.00;;;17.60;61.80;;;;;;5015775;28;20196;-91
2021/05/13 10:32:22;;;;;;;6.43;3.27;;;17.60;61.60;;;;;;5028627;28;20192;-90
2021/05/13 10:34:58;;;;;;;4.50;2.70;;;17.70;60.80;;;;;;5015412;28;20190;-90
2021/05/13 10:37:30;;;;;;;5.40;3.20;;;17.90;60.70;;;;;;5015046;28;20670;-89
2021/05/13 10:40:14;;;;;;;5.17;3.03;;;18.20;59.80;;;;;;5019347;28;20213;-90
2021/05/13 10:42:44;;;;;;;4.47;2.37;;;18.60;58.70;;;;;;5021547;28;20195;-90
2021/05/13 10:45:25;;;;;;;4.23;2.37;;;18.70;55.80;;;;;;5022680;28;20244;-91
2021/05/13 10:48:27;;;;;;;2.43;2.17;;;18.40;53.60;;;;;;5019917;28;20314;-91
2021/05/13 10:51:02;;;;;;;3.60;2.50;;;18.10;57.00;;;;;;5019741;28;20220;-91
2021/05/13 10:53:38;;;;;;;2.20;2.00;;;18.20;56.50;;;;;;5010479;28;20220;-91
2021/05/13 10:56:32;;;;;;;5.03;2.37;;;18.30;56.90;;;;;;5017162;28;20683;-89
2021/05/13 10:59:09;;;;;;;3.60;2.37;;;18.20;56.40;;;;;;5023153;28;20673;-89
2021/05/13 11:01:47;;;;;;;4.30;2.37;;;18.10;56.00;;;;;;5018248;28;20189;-90
2021/05/13 11:04:22;;;;;;;4.03;2.27;;;17.90;57.90;;;;;;5021515;28;20186;-89
2021/05/13 11:06:55;;;;;;;3.27;2.57;;;18.30;57.40;;;;;;5012979;28;20373;-89
2021/05/13 11:09:39;;;;;;;3.20;2.63;;;18.60;56.30;;;;;;5014028;28;20593;-90
2021/05/13 11:12:23;;;;;;;2.97;2.50;;;18.80;54.60;;;;;;5013688;28;20700;-89
2021/05/13 11:15:10;;;;;;;2.87;2.10;;;19.00;54.90;;;;;;5014395;28;20275;-89
2021/05/13 11:17:44;;;;;;;2.40;2.20;;;19.30;53.00;;;;;;5010281;28;20190;-90
2021/05/13 11:20:23;;;;;;;3.93;2.40;;;19.60;52.60;;;;;;5020490;28;20585;-90
2021/05/13 11:23:11;;;;;;;2.60;2.40;;;19.50;54.10;;;;;;5012289;28;20186;-90
2021/05/13 11:25:44;;;;;;;3.93;2.77;;;19.30;54.00;;;;;;5015260;28;20188;-90
2021/05/13 11:28:32;;;;;;;2.97;2.53;;;19.20;54.70;;;;;;5025162;28;20213;-91
2021/05/13 11:31:03;;;;;;;3.07;2.20;;;19.20;54.00;;;;;;5011402;28;20257;-91
2021/05/13 11:33:37;;;;;;;4.30;2.60;;;19.10;54.00;;;;;;5011220;28;20189;-92
2021/05/13 11:36:05;;;;;;;6.72;3.08;;;19.50;55.40;;;;;;5012930;28;20184;-92
2021/05/13 11:38:30;;;;;;;4.93;3.15;;;19.80;55.90;;;;;;5013225;28;20188;-91
2021/05/13 11:40:57;;;;;;;3.92;3.08;;;19.80;53.70;;;;;;5012072;28;20221;-92
2021/05/13 11:43:32;;;;;;;5.22;3.00;;;19.80;55.10;;;;;;5019577;28;20199;-91
2021/05/13 11:45:59;;;;;;;3.57;2.87;;;19.90;55.00;;;;;;5018080;28;20194;-91
2021/05/13 11:48:27;;;;;;;4.15;2.75;;;19.30;55.40;;;;;;5012030;28;20212;-91
2021/05/13 11:50:56;;;;;;;4.40;2.70;;;19.60;55.10;;;;;;5014306;28;20227;-91
2021/05/13 11:53:23;;;;;;;2.83;2.55;;;19.30;55.10;;;;;;5025642;28;20593;-92
2021/05/13 11:55:49;;;;;;;3.40;2.70;;;19.30;52.10;;;;;;5013480;28;20223;-91
2021/05/13 11:58:39;;;;;;;3.47;2.90;;;19.50;53.70;;;;;;5011116;28;20202;-92
2021/05/13 12:01:37;;;;;;;5.67;2.90;;;19.40;55.90;;;;;;5026625;28;20253;-91
2021/05/13 12:04:07;;;;;;;5.73;2.87;;;19.50;54.80;;;;;;5014473;28;20196;-93
2021/05/13 12:06:50;;;;;;;7.13;2.45;;;19.90;53.10;;;;;;5015586;28;20257;-91
2021/05/13 12:09:18;;;;;;;4.50;2.42;;;20.10;51.80;;;;;;5014594;28;20278;-91
2021/05/13 12:11:44;;;;;;;4.90;2.58;;;20.10;50.50;;;;;;5012614;28;20195;-91
2021/05/13 12:14:18;;;;;;;3.78;2.45;;;20.20;49.30;;;;;;5016176;28;20189;-91
2021/05/13 12:16:44;;;;;;;2.75;2.40;;;20.80;50.40;;;;;;5022646;28;20204;-91
2021/05/13 12:19:14;;;;;;;4.03;2.20;;;20.80;48.60;;;;;;5020854;28;20283;-91
2021/05/13 12:21:40;;;;;;;4.00;2.80;;;20.70;48.70;;;;;;5022211;28;20285;-92
2021/05/13 12:24:08;;;;;;;3.70;2.45;;;20.90;48.00;;;;;;5021257;28;20279;-91
2021/05/13 12:26:39;;;;;;;3.38;2.70;;;21.00;47.80;;;;;;5017981;28;20276;-91
2021/05/13 12:29:11;;;;;;;4.68;1.98;;;20.70;49.40;;;;;;5021476;28;20208;-90
2021/05/13 12:31:39;;;;;;;2.00;1.80;;;19.60;51.30;;;;;;5018718;28;20209;-90
2021/05/13 12:34:05;;;;;;;5.37;2.00;;;18.60;54.90;;;;;;5021338;28;20182;-91
2021/05/13 12:36:33;;;;;;;4.57;2.20;;;17.60;59.90;;;;;;5031409;28;20224;-90
2021/05/13 12:39:00;;;;;;;2.33;2.13;;;16.40;66.10;;;;;;5034500;28;20215;-91
2021/05/13 12:41:27;;;;;;;4.30;2.63;;;15.70;72.50;;;;;;5029749;28;20183;-90
2021/05/13 12:44:05;;;;;;;4.33;2.60;;;15.30;79.90;;;;;;5016642;28;20220;-90
2021/05/13 12:46:31;;;;;;;4.90;2.43;;;14.70;84.20;;;;;;5027481;28;20220;-90
2021/05/13 12:48:57;;;;;;;4.20;2.30;;;14.10;89.40;;;;;;5020127;28;20207;-90
2021/05/13 12:51:24;;;;;;;4.17;2.10;;;13.60;87.50;;;;;;5027573;28;20190;-91
2021/05/13 12:53:53;;;;;;;2.87;1.90;;;13.20;90.20;;;;;;5020936;28;20178;-91
2021/05/13 12:56:36;;;;;;;1.80;1.70;;;13.00;90.20;;;;;;5019585;28;20185;-90
2021/05/13 12:59:11;;;;;;;2.10;1.93;;;12.80;91.70;;;;;;5019082;28;20218;-90
2021/05/13 13:01:39;;;;;;;3.27;1.90;;;12.80;93.90;;;;;;5015794;28;20705;-90
2021/05/13 13:04:07;;;;;;;3.07;1.80;;;12.80;93.90;;;;;;5016498;28;20244;-89
2021/05/13 13:06:56;;;;;;;2.27;1.77;;;12.60;92.00;;;;;;5017639;28;20546;-90
2021/05/13 13:09:35;;;;;;;5.17;1.90;;;12.60;93.10;;;;;;5016349;28;20201;-91